createdAt,value
2024-04-19T00:00:14.001Z,99981.56
2024-04-19T00:03:16.692Z,99988.69
2024-04-19T00:06:19.626Z,99982.88
2024-04-19T00:09:22.244Z,99980.88
2024-04-19T00:12:24.785Z,99984.28
2024-04-19T00:15:27.278Z,99987.16
2024-04-19T00:18:30.129Z,99982.94
2024-04-19T00:21:32.860Z,99965.81
2024-04-19T00:24:35.481Z,99983.28
2024-04-19T00:27:38.144Z,99990.63
2024-04-19T00:30:44.141Z,99994.00
2024-04-19T00:33:46.969Z,99988.25
2024-04-19T00:36:49.611Z,99994.38
2024-04-19T00:39:52.256Z,99995.75
2024-04-19T00:42:57.364Z,99966.63
2024-04-19T00:45:59.868Z,99988.44
2024-04-19T00:49:02.394Z,99988.28
2024-04-19T00:52:07.583Z,99985.84
2024-04-19T00:55:10.228Z,99991.84
2024-04-19T00:58:14.332Z,99988.56
2024-04-19T01:01:18.699Z,99996.47
2024-04-19T01:04:22.380Z,99999.63
2024-04-19T01:07:25.277Z,99991.28
2024-04-19T01:10:27.814Z,99968.31
2024-04-19T01:13:30.366Z,99992.44
2024-04-19T01:16:32.874Z,99997.72
2024-04-19T01:19:35.330Z,99998.78
2024-04-19T01:22:38.522Z,100000.53
2024-04-19T01:25:42.802Z,100006.19
2024-04-19T01:28:46.328Z,99999.41
2024-04-19T01:31:48.848Z,99993.88
2024-04-19T01:34:51.358Z,100002.75
2024-04-19T01:37:53.841Z,100004.91
2024-04-19T01:40:56.368Z,100003.84
2024-04-19T01:43:59.911Z,100008.25
2024-04-19T01:47:02.591Z,100010.97
2024-04-19T01:50:06.155Z,100015.94
2024-04-19T01:53:08.635Z,100002.47
2024-04-19T01:56:11.193Z,99995.34
2024-04-19T01:59:16.647Z,99998.84
2024-04-19T02:02:19.247Z,100001.63
2024-04-19T02:05:21.748Z,99990.44
2024-04-19T02:08:24.260Z,99996.47
2024-04-19T02:11:26.918Z,99998.22
2024-04-19T02:14:31.500Z,99997.84
2024-04-19T02:17:34.242Z,99997.84
2024-04-19T02:20:36.895Z,99997.59
2024-04-19T02:23:39.566Z,99999.88
2024-04-19T02:26:42.449Z,60870.34
2024-04-19T02:30:03.838Z,60870.34
2024-04-19T02:33:06.422Z,60870.34
2024-04-19T02:36:11.002Z,60870.34
2024-04-19T02:39:13.596Z,60870.34
2024-04-19T02:42:16.102Z,60870.34
2024-04-19T02:45:27.694Z,60870.34
2024-04-19T02:48:30.456Z,60870.34
2024-04-19T02:51:33.147Z,60870.34
2024-04-19T02:54:35.703Z,60870.34
2024-04-19T02:57:38.246Z,60870.34
2024-04-19T03:00:40.911Z,60870.34
2024-04-19T03:03:43.650Z,60870.34
2024-04-19T03:06:46.414Z,60870.34
2024-04-19T03:09:49.018Z,60870.34
2024-04-19T03:12:51.798Z,60870.34
2024-04-19T03:16:03.880Z,60870.34
2024-04-19T03:19:18.393Z,60870.34
2024-04-19T03:22:20.942Z,60870.34
2024-04-19T03:25:23.577Z,60870.34
2024-04-19T03:28:26.091Z,60870.34
2024-04-19T03:31:28.597Z,60870.34
2024-04-19T03:34:31.244Z,60870.34
2024-04-19T03:37:33.748Z,60870.34
2024-04-19T03:40:36.313Z,60870.34
2024-04-19T03:43:43.033Z,60870.34
2024-04-19T03:46:45.567Z,60870.34
2024-04-19T03:49:48.196Z,60870.34
2024-04-19T03:52:50.720Z,60870.34
2024-04-19T03:55:53.561Z,60870.34
2024-04-19T03:58:56.170Z,60870.34
2024-04-19T04:01:58.726Z,60870.34
2024-04-19T04:05:01.306Z,60870.34
2024-04-19T04:08:04.098Z,60870.34
2024-04-19T04:11:10.709Z,60870.34
2024-04-19T04:14:13.216Z,60870.34
2024-04-19T04:17:15.774Z,60870.34
2024-04-19T04:20:18.453Z,60870.34
2024-04-19T04:23:20.974Z,60870.34
2024-04-19T04:26:23.487Z,60870.34
2024-04-19T04:29:28.631Z,60870.34
2024-04-19T04:32:31.178Z,60870.34
2024-04-19T04:35:35.860Z,60870.34
2024-04-19T04:38:38.381Z,60870.34
2024-04-19T04:41:41.444Z,60870.34
2024-04-19T04:44:43.988Z,60870.34
2024-04-19T04:47:46.626Z,60870.34
2024-04-19T04:50:49.189Z,60870.34
2024-04-19T04:53:51.732Z,60870.34
2024-04-19T04:56:54.260Z,60870.34
2024-04-19T04:59:56.787Z,60870.34
2024-04-19T05:03:00.986Z,60870.34
2024-04-19T05:06:03.861Z,60870.34
2024-04-19T05:09:06.359Z,60870.34
2024-04-19T05:12:09.765Z,60870.34
2024-04-19T05:15:12.292Z,60870.34
2024-04-19T05:18:17.859Z,60870.34
2024-04-19T05:21:20.457Z,60870.34
2024-04-19T05:24:22.998Z,60870.34
2024-04-19T05:27:25.553Z,60870.34
2024-04-19T05:30:29.274Z,60870.34
2024-04-19T05:33:31.986Z,60870.34
2024-04-19T05:36:34.499Z,60870.34
2024-04-19T05:39:37.163Z,60870.34
2024-04-19T05:42:39.761Z,60870.34
2024-04-19T05:45:43.737Z,60870.34
2024-04-19T05:48:46.383Z,60870.34
2024-04-19T05:51:48.972Z,60870.34
2024-04-19T05:54:51.611Z,60870.34
2024-04-19T05:57:54.525Z,60870.34
2024-04-19T06:00:57.167Z,60870.34
2024-04-19T06:04:00.098Z,60870.34
2024-04-19T06:07:02.822Z,60870.34
2024-04-19T06:10:06.721Z,60870.34
2024-04-19T06:13:09.309Z,60870.34
2024-04-19T06:16:12.144Z,60870.34
2024-04-19T06:19:14.681Z,60870.34
2024-04-19T06:22:17.463Z,60870.34
2024-04-19T06:25:19.989Z,100169.00
2024-04-19T06:28:22.944Z,100169.00
2024-04-19T06:31:25.564Z,60870.34
2024-04-19T06:34:29.295Z,100061.25
2024-04-19T06:37:31.811Z,100170.53
2024-04-19T06:40:34.405Z,60870.34
2024-04-19T06:43:36.952Z,100172.75
2024-04-19T06:46:39.479Z,100172.75
2024-04-19T06:49:42.101Z,100154.56
2024-04-19T06:52:44.665Z,100170.56
2024-04-19T06:55:49.374Z,100171.91
2024-04-19T06:58:51.946Z,100161.50
2024-04-19T07:01:55.058Z,100171.25
2024-04-19T07:04:57.722Z,100172.44
2024-04-19T07:08:00.348Z,100188.97
2024-04-19T07:11:03.961Z,100169.16
2024-04-19T07:14:06.564Z,100189.44
2024-04-19T07:17:09.162Z,100186.47
2024-04-19T07:20:11.862Z,100169.06
2024-04-19T07:23:15.911Z,100180.03
2024-04-19T07:26:18.677Z,100185.88
2024-04-19T07:29:23.673Z,100187.44
2024-04-19T07:32:26.266Z,100170.00
2024-04-19T07:35:28.967Z,100157.22
2024-04-19T07:38:31.546Z,100180.50
2024-04-19T07:41:37.052Z,100171.47
2024-04-19T07:44:40.307Z,100152.09
2024-04-19T07:47:42.986Z,100169.66
2024-04-19T07:50:47.082Z,100165.31
2024-04-19T07:53:49.708Z,100168.69
2024-04-19T07:56:53.030Z,100177.16
2024-04-19T07:59:55.643Z,100170.22
2024-04-19T08:02:58.914Z,100175.31
2024-04-19T08:06:01.457Z,100159.66
2024-04-19T08:09:04.053Z,100175.69
2024-04-19T08:12:08.048Z,100168.63
2024-04-19T08:15:10.562Z,100159.50
2024-04-19T08:18:13.139Z,100161.97
2024-04-19T08:21:15.642Z,100147.94
2024-04-19T08:24:18.226Z,100150.09
2024-04-19T08:27:21.434Z,100149.25
2024-04-19T08:30:24.507Z,100141.31
2024-04-19T08:33:27.104Z,100158.53
2024-04-19T08:36:29.643Z,100129.94
2024-04-19T08:39:32.209Z,100136.75
2024-04-19T08:42:34.783Z,100134.63
2024-04-19T08:45:37.498Z,100147.97
2024-04-19T08:48:44.342Z,100139.94
2024-04-19T08:52:00.735Z,100147.81
2024-04-19T08:55:10.348Z,100146.59
2024-04-19T08:58:14.588Z,100145.38
2024-04-19T09:01:17.214Z,100151.38
2024-04-19T09:04:19.831Z,100149.59
2024-04-19T09:07:22.539Z,100127.47
2024-04-19T09:10:26.071Z,100138.09
2024-04-19T09:13:28.603Z,100123.28
2024-04-19T09:16:33.777Z,100132.56
2024-04-19T09:19:36.677Z,100137.69
2024-04-19T09:22:39.242Z,100134.78
2024-04-19T09:25:42.405Z,100121.88
2024-04-19T09:28:45.081Z,100122.84
2024-04-19T09:31:47.719Z,100132.00
2024-04-19T09:34:51.485Z,100125.19
2024-04-19T09:37:55.047Z,100131.31
2024-04-19T09:41:01.003Z,100117.69
2024-04-19T09:44:06.029Z,100117.81
2024-04-19T09:47:10.588Z,100115.41
2024-04-19T09:50:15.856Z,100123.47
2024-04-19T09:53:26.315Z,100115.06
2024-04-19T09:56:47.176Z,100117.63
2024-04-19T09:59:50.562Z,100107.88
2024-04-19T10:02:53.955Z,100094.31
2024-04-19T10:05:56.909Z,100092.75
2024-04-19T10:08:59.939Z,100088.38
2024-04-19T10:12:03.744Z,100090.97
2024-04-19T10:15:10.893Z,100061.22
2024-04-19T10:18:13.715Z,100070.78
2024-04-19T10:21:16.413Z,100075.47
2024-04-19T10:24:23.731Z,100050.84
2024-04-19T10:27:30.616Z,100068.31
2024-04-19T10:30:36.835Z,100068.19
2024-04-19T10:33:39.966Z,100055.13
2024-04-19T10:36:42.560Z,100036.34
2024-04-19T10:39:48.154Z,100042.97
2024-04-19T10:43:01.661Z,100045.22
2024-04-19T10:46:04.572Z,100036.22
2024-04-19T10:49:07.183Z,100037.00
2024-04-19T10:56:59.821Z,100048.44
2024-04-19T11:00:02.359Z,100044.78
2024-04-19T11:03:14.331Z,100024.38
2024-04-19T11:06:20.851Z,100035.72
2024-04-19T11:09:24.466Z,100021.53
2024-04-19T11:12:27.871Z,100023.69
2024-04-19T11:15:36.896Z,100013.78
2024-04-19T11:18:46.886Z,100021.63
2024-04-19T11:21:50.285Z,100016.56
2024-04-19T11:24:56.093Z,99999.72
2024-04-19T11:27:59.268Z,100003.09
2024-04-19T11:31:10.272Z,99989.56
2024-04-19T11:34:15.015Z,99998.41
2024-04-19T11:37:18.206Z,100001.53
2024-04-19T11:40:25.223Z,99994.13
2024-04-19T11:43:28.050Z,99987.91
2024-04-19T11:46:31.268Z,99971.06
2024-04-19T11:49:33.986Z,99975.44
2024-04-19T11:52:38.852Z,99980.47
2024-04-19T11:55:42.421Z,99973.47
2024-04-19T11:58:45.510Z,99958.69
2024-04-19T12:01:48.783Z,99957.31
2024-04-19T12:04:51.568Z,99951.19
2024-04-19T12:07:54.740Z,99967.75
2024-04-19T12:10:57.579Z,99933.75
2024-04-19T12:14:50.724Z,99937.78
2024-04-19T12:17:27.122Z,99941.03
2024-04-19T12:20:46.411Z,99937.56
2024-04-19T12:23:54.777Z,99945.22
2024-04-19T12:27:00.373Z,99941.00
2024-04-19T12:30:03.299Z,99944.34
2024-04-19T12:33:06.079Z,99924.44
2024-04-19T12:36:08.797Z,99933.13
2024-04-19T12:39:11.331Z,99917.59
2024-04-19T12:42:13.944Z,99912.69
2024-04-19T12:45:16.899Z,99913.75
2024-04-19T12:48:21.030Z,99912.25
2024-04-19T12:51:25.280Z,99899.13
2024-04-19T12:54:28.070Z,99904.53
2024-04-19T12:57:30.686Z,99883.72
2024-04-19T13:00:33.348Z,99905.34
2024-04-19T13:03:36.126Z,99879.97
2024-04-19T13:06:38.903Z,99887.88
2024-04-19T13:09:41.637Z,99876.88
2024-04-19T13:12:44.155Z,99883.59
2024-04-19T13:15:46.766Z,99875.28
2024-04-19T13:18:49.882Z,99880.66
2024-04-19T13:21:52.689Z,99854.84
2024-04-19T13:24:55.333Z,99852.94
2024-04-19T13:27:58.056Z,99858.28
2024-04-19T13:31:00.783Z,99836.69
2024-04-19T13:34:03.411Z,99839.03
2024-04-19T13:37:10.688Z,99839.19
2024-04-19T13:40:13.899Z,99840.69
2024-04-19T13:43:17.109Z,99852.44
2024-04-19T13:46:19.837Z,99837.63
2024-04-19T13:49:22.460Z,99846.97
2024-04-19T13:52:24.990Z,99815.47
2024-04-19T13:55:27.509Z,99834.50
2024-04-19T13:58:31.240Z,99838.91
2024-04-19T14:01:34.000Z,99825.13
2024-04-19T14:04:37.105Z,99819.38
2024-04-19T14:07:39.716Z,99801.13
2024-04-19T14:10:44.586Z,99795.53
2024-04-19T14:13:47.102Z,99812.31
2024-04-19T14:16:50.475Z,99809.38
2024-04-19T14:19:55.269Z,99815.31
2024-04-19T14:22:57.764Z,99804.13
2024-04-19T14:26:01.434Z,99802.78
2024-04-19T14:29:04.044Z,99796.72
2024-04-19T14:32:06.805Z,99784.69
2024-04-19T14:35:09.658Z,99787.41
2024-04-19T14:38:12.274Z,99781.59
2024-04-19T14:41:14.804Z,99784.19
2024-04-19T14:44:17.879Z,99772.03
2024-04-19T14:47:21.897Z,99768.34
2024-04-19T14:50:24.546Z,99776.94
2024-04-19T14:53:27.482Z,99764.41
2024-04-19T14:56:30.109Z,99765.66
2024-04-19T14:59:32.681Z,99747.59
2024-04-19T15:02:35.271Z,99758.53
2024-04-19T15:05:39.965Z,99756.84
2024-04-19T15:08:42.482Z,99748.31
2024-04-19T15:11:45.059Z,99749.88
2024-04-19T15:14:47.653Z,99751.66
2024-04-19T15:17:51.982Z,99757.25
2024-04-19T15:20:54.523Z,99747.69
2024-04-19T15:23:57.026Z,99754.59
2024-04-19T15:26:59.591Z,99748.31
2024-04-19T15:30:02.251Z,99746.63
2024-04-19T15:33:05.323Z,99742.53
2024-04-19T15:36:08.062Z,99739.16
2024-04-19T15:39:10.615Z,99739.78
2024-04-19T15:42:14.341Z,99739.66
2024-04-19T15:45:17.381Z,99732.50
2024-04-19T15:48:20.082Z,99729.31
2024-04-19T15:51:22.732Z,99727.16
2024-04-19T15:54:25.488Z,99736.13
2024-04-19T15:57:28.438Z,99735.38
2024-04-19T16:00:31.202Z,99728.31
2024-04-19T16:03:34.926Z,99734.25
2024-04-19T16:06:37.603Z,99728.13
2024-04-19T16:09:40.713Z,99728.44
2024-04-19T16:12:43.418Z,99726.19
2024-04-19T16:15:46.080Z,99728.59
2024-04-19T16:18:49.949Z,99732.81
2024-04-19T16:21:52.575Z,99729.16
2024-04-19T16:24:56.030Z,99723.34
2024-04-19T16:27:58.706Z,99720.41
2024-04-19T16:31:01.638Z,99712.91
2024-04-19T16:34:04.646Z,99719.78
2024-04-19T16:37:07.270Z,99722.28
2024-04-19T16:40:10.283Z,99722.09
2024-04-19T16:43:13.430Z,99713.75
2024-04-19T16:46:15.938Z,99718.56
2024-04-19T16:49:18.470Z,99711.88
2024-04-19T16:52:21.757Z,99722.19
2024-04-19T16:55:24.881Z,99711.44
2024-04-19T16:58:27.568Z,99711.41
2024-04-19T17:01:30.182Z,99715.38
2024-04-19T17:04:33.248Z,99712.03
2024-04-19T17:07:35.861Z,99723.94
2024-04-19T17:10:38.591Z,99713.53
2024-04-19T17:13:41.444Z,99708.03
2024-04-19T17:16:45.111Z,99691.47
2024-04-19T17:19:47.901Z,99716.53
2024-04-19T17:22:50.443Z,99697.50
2024-04-19T17:25:53.046Z,99721.28
2024-04-19T17:28:57.015Z,99715.09
2024-04-19T17:31:59.518Z,99729.50
2024-04-19T17:35:03.078Z,99721.44
2024-04-19T17:38:05.635Z,99720.69
2024-04-19T17:41:08.551Z,99718.38
2024-04-19T17:44:11.007Z,99725.00
2024-04-19T17:47:13.637Z,99720.44
2024-04-19T17:50:16.255Z,99727.84
2024-04-19T17:53:18.726Z,99726.81
2024-04-19T17:56:21.193Z,99726.75
2024-04-19T17:59:24.024Z,99728.16
2024-04-19T18:02:26.554Z,99726.78
2024-04-19T18:05:30.966Z,99727.97
2024-04-19T18:08:33.490Z,99736.66
2024-04-19T18:11:36.543Z,99732.84
2024-04-19T18:14:39.041Z,99736.41
2024-04-19T18:17:41.567Z,99731.59
2024-04-19T18:20:46.983Z,99736.88
2024-04-19T18:23:49.812Z,99741.03
2024-04-19T18:26:52.657Z,99733.66
2024-04-19T18:29:59.949Z,99733.72
2024-04-19T18:33:05.054Z,99736.69
2024-04-19T18:36:07.843Z,99734.88
2024-04-19T18:39:11.555Z,99740.00
2024-04-19T18:42:14.056Z,99745.53
2024-04-19T18:45:16.990Z,99732.81
2024-04-19T18:48:19.547Z,99752.88
2024-04-19T18:51:22.438Z,99747.19
2024-04-19T18:54:25.140Z,99754.03
2024-04-19T18:57:47.866Z,99759.06
2024-04-19T19:01:16.593Z,99756.50
2024-04-19T19:04:40.977Z,99757.88
2024-04-19T19:08:03.389Z,99747.16
2024-04-19T19:11:28.069Z,99753.00
2024-04-19T19:14:33.214Z,99755.91
2024-04-19T19:17:37.558Z,99755.34
2024-04-19T19:20:40.047Z,99761.41
2024-04-19T19:23:42.980Z,99751.97
2024-04-19T19:26:46.131Z,99752.25
2024-04-19T19:29:48.939Z,99752.09
2024-04-19T19:32:51.738Z,99756.31
2024-04-19T19:35:56.151Z,99754.94
2024-04-19T19:38:58.638Z,99749.66
2024-04-19T19:42:02.453Z,99753.09
2024-04-19T19:45:05.355Z,99722.91
2024-04-19T19:48:08.101Z,99742.88
2024-04-19T19:51:11.160Z,99748.69
2024-04-19T19:54:13.937Z,99749.66
2024-04-19T19:57:16.570Z,99752.19
2024-04-19T20:00:38.129Z,99751.66
2024-04-19T20:03:59.218Z,99746.75
2024-04-19T20:07:03.156Z,99755.72
2024-04-19T20:10:05.989Z,99747.06
2024-04-19T20:13:10.116Z,99746.81
2024-04-19T20:16:16.515Z,99751.97
2024-04-19T20:19:19.088Z,99750.66
2024-04-19T20:22:22.718Z,99747.13
2024-04-19T20:25:28.020Z,99748.38
2024-04-19T20:28:30.523Z,99744.88
2024-04-19T20:31:33.073Z,99749.84
2024-04-19T20:34:35.555Z,99745.28
2024-04-19T20:37:38.034Z,99741.38
2024-04-19T20:40:40.595Z,99745.03
2024-04-19T20:43:43.126Z,99745.34
2024-04-19T20:46:45.600Z,99746.03
2024-04-19T20:49:48.180Z,99751.91
2024-04-19T20:52:51.765Z,99748.38
2024-04-19T20:55:54.968Z,99741.97
2024-04-19T20:58:57.838Z,99745.31
2024-04-19T21:02:00.548Z,99720.38
2024-04-19T21:05:04.498Z,99741.66
2024-04-19T21:08:07.283Z,99735.78
2024-04-19T21:11:10.049Z,99733.31
2024-04-19T21:14:12.559Z,99744.59
2024-04-19T21:17:15.357Z,99740.25
2024-04-19T21:20:18.051Z,99745.19
2024-04-19T21:23:20.542Z,99743.38
2024-04-19T21:26:23.688Z,99728.25
2024-04-19T21:29:26.197Z,99736.63
2024-04-19T21:32:30.407Z,99735.78
2024-04-19T21:35:33.203Z,99750.53
2024-04-19T21:38:35.761Z,99740.78
2024-04-19T21:41:38.299Z,99736.81
2024-04-19T21:44:40.782Z,99740.81
2024-04-19T21:47:45.612Z,99734.50
2024-04-19T21:50:48.131Z,99731.63
2024-04-19T21:53:51.405Z,99740.88
2024-04-19T21:56:53.933Z,99735.00
2024-04-19T21:59:56.375Z,99729.19
2024-04-19T22:02:58.824Z,99731.47
2024-04-19T22:06:02.340Z,99723.59
2024-04-19T22:09:04.840Z,99728.53
2024-04-19T22:12:07.610Z,99722.41
2024-04-19T22:15:10.518Z,99727.94
2024-04-19T22:18:13.085Z,99726.25
2024-04-19T22:21:16.586Z,99728.41
2024-04-19T22:24:19.246Z,99736.13
2024-04-19T22:27:21.760Z,99687.84
2024-04-19T22:30:24.441Z,99730.00
2024-04-19T22:33:28.260Z,99734.13
2024-04-19T22:36:30.860Z,99736.41
2024-04-19T22:39:34.194Z,99738.03
2024-04-19T22:42:36.759Z,99738.25
2024-04-19T22:45:42.099Z,99724.69
2024-04-19T22:48:44.735Z,99726.44
2024-04-19T22:51:47.295Z,99728.19
2024-04-19T22:54:49.890Z,99721.78
2024-04-19T22:57:52.511Z,99722.78
2024-04-19T23:01:01.140Z,99720.88
2024-04-19T23:04:04.489Z,99724.97
2024-04-19T23:07:07.182Z,99719.00
2024-04-19T23:10:09.894Z,99712.50
2024-04-19T23:13:12.406Z,99718.41
2024-04-19T23:16:15.089Z,99715.78
2024-04-19T23:19:17.597Z,99717.53
2024-04-19T23:22:20.318Z,99714.94
2024-04-19T23:25:23.303Z,99713.84
2024-04-19T23:28:25.828Z,99714.41
2024-04-19T23:31:28.348Z,99711.72
2024-04-19T23:34:30.827Z,99711.47
2024-04-19T23:37:33.806Z,99702.59
2024-04-19T23:40:36.331Z,99705.66
2024-04-19T23:43:38.861Z,99695.63
2024-04-19T23:46:41.365Z,99694.53
2024-04-19T23:49:43.905Z,99696.81
2024-04-19T23:52:46.790Z,99688.50
2024-04-19T23:55:49.286Z,99690.16
2024-04-19T23:58:51.772Z,99688.78
